createdAt,value
2023-03-16T00:01:48.348Z,8.40
2023-03-16T00:09:56.672Z,9.00
2023-03-16T00:18:02.072Z,7.93
2023-03-16T00:26:13.237Z,8.77
2023-03-16T00:34:18.704Z,8.75
2023-03-16T00:42:29.700Z,9.02
2023-03-16T00:50:35.333Z,9.13
2023-03-16T00:58:44.454Z,7.95
2023-03-16T01:06:50.595Z,8.05
2023-03-16T01:14:58.718Z,7.72
2023-03-16T01:23:06.197Z,6.95
2023-03-16T01:31:17.275Z,7.38
2023-03-16T01:39:23.754Z,6.60
2023-03-16T01:47:38.072Z,5.95
2023-03-16T01:55:47.200Z,5.60
2023-03-16T02:04:00.648Z,5.78
2023-03-16T02:12:09.473Z,6.20
2023-03-16T02:20:33.025Z,6.15
2023-03-16T02:28:48.740Z,6.05
2023-03-16T02:36:57.744Z,5.20
2023-03-16T02:45:05.034Z,5.38
2023-03-16T02:53:16.252Z,5.30
2023-03-16T03:01:21.887Z,4.80
2023-03-16T03:09:30.379Z,4.80
2023-03-16T03:17:37.619Z,4.57
2023-03-16T03:25:46.253Z,4.30
2023-03-16T03:33:53.739Z,3.90
2023-03-16T03:42:03.300Z,3.72
2023-03-16T03:50:10.590Z,3.17
2023-03-16T03:58:28.714Z,3.30
2023-03-16T04:06:34.319Z,2.90
2023-03-16T04:14:43.158Z,2.13
2023-03-16T04:22:50.020Z,2.10
2023-03-16T04:30:58.411Z,1.48
2023-03-16T04:39:10.646Z,1.40
2023-03-16T04:47:20.708Z,1.90
2023-03-16T04:55:26.594Z,1.73
2023-03-16T05:03:35.640Z,2.25
2023-03-16T05:11:42.830Z,1.70
2023-03-16T05:19:53.518Z,1.60
2023-03-16T05:28:00.970Z,1.30
2023-03-16T05:36:21.394Z,1.77
2023-03-16T05:44:30.988Z,1.52
2023-03-16T05:52:50.514Z,2.00
2023-03-16T06:01:05.112Z,1.00
2023-03-16T06:09:14.730Z,1.60
2023-03-16T06:17:21.737Z,2.50
2023-03-16T06:25:30.050Z,1.75
2023-03-16T06:33:35.978Z,1.27
2023-03-16T06:41:45.513Z,1.50
2023-03-16T06:49:55.464Z,1.50
2023-03-16T06:58:06.684Z,1.60
2023-03-16T07:06:12.593Z,2.28
2023-03-16T07:14:23.440Z,2.15
2023-03-16T07:22:32.591Z,1.30
2023-03-16T07:30:50.563Z,0.80
2023-03-16T07:39:06.891Z,1.45
2023-03-16T07:47:17.794Z,1.27
2023-03-16T07:55:24.006Z,1.00
2023-03-16T08:03:34.157Z,1.30
2023-03-16T08:11:40.920Z,1.45
2023-03-16T08:19:49.148Z,1.02
2023-03-16T08:27:55.418Z,1.42
2023-03-16T08:36:03.839Z,1.65
2023-03-16T08:44:13.156Z,2.35
2023-03-16T08:52:22.955Z,1.00
2023-03-16T09:00:29.085Z,1.40
2023-03-16T09:08:39.213Z,1.55
2023-03-16T09:16:44.636Z,1.65
2023-03-16T09:24:52.852Z,1.52
2023-03-16T09:33:01.905Z,1.80
2023-03-16T09:41:12.027Z,1.50
2023-03-16T09:49:21.532Z,1.60
2023-03-16T09:57:34.995Z,1.70
2023-03-16T10:05:41.448Z,1.70
2023-03-16T10:13:54.477Z,1.95
2023-03-16T10:22:03.720Z,1.73
2023-03-16T10:30:25.980Z,1.48
2023-03-16T10:38:38.847Z,1.75
2023-03-16T10:46:49.643Z,1.40
2023-03-16T10:54:58.747Z,1.27
2023-03-16T11:03:23.978Z,1.63
2023-03-16T11:11:34.129Z,1.58
2023-03-16T11:19:48.621Z,1.70
2023-03-16T11:27:59.608Z,1.30
2023-03-16T11:36:21.867Z,1.88
2023-03-16T11:44:35.653Z,1.80
2023-03-16T12:01:03.349Z,1.10
2023-03-16T12:09:38.013Z,1.15
2023-03-16T12:17:45.473Z,1.90
2023-03-16T12:25:55.330Z,1.10
2023-03-16T12:34:10.760Z,1.27
2023-03-16T12:42:40.033Z,1.23
2023-03-16T12:50:54.945Z,0.98
2023-03-16T12:59:05.912Z,0.80
2023-03-16T13:07:14.378Z,1.30
2023-03-16T13:15:33.010Z,3.70
2023-03-16T13:23:58.685Z,2.10
2023-03-16T13:32:16.786Z,2.10
2023-03-16T13:40:26.193Z,1.42
2023-03-16T13:48:41.907Z,1.45
2023-03-16T13:56:57.531Z,1.35
2023-03-16T14:05:14.247Z,1.52
2023-03-16T14:13:45.219Z,1.60
2023-03-16T14:21:54.770Z,1.48
2023-03-16T14:30:05.307Z,1.73
2023-03-16T14:38:32.138Z,1.80
2023-03-16T14:46:41.821Z,2.17
2023-03-16T14:54:51.477Z,1.90
2023-03-16T15:03:03.302Z,2.28
2023-03-16T15:11:11.432Z,2.30
2023-03-16T15:19:19.494Z,2.05
2023-03-16T15:27:31.632Z,2.20
2023-03-16T15:35:37.542Z,2.90
2023-03-16T15:43:45.900Z,2.63
2023-03-16T15:51:51.495Z,2.50
2023-03-16T16:00:00.331Z,2.55
2023-03-16T16:08:05.828Z,2.67
2023-03-16T16:16:16.327Z,2.72
2023-03-16T16:24:22.657Z,2.67
2023-03-16T16:32:30.729Z,3.13
2023-03-16T16:40:45.937Z,2.42
2023-03-16T16:48:56.248Z,2.83
2023-03-16T16:57:03.218Z,3.72
2023-03-16T17:05:17.639Z,2.38
2023-03-16T17:13:35.444Z,2.88
2023-03-16T17:21:44.187Z,3.03
2023-03-16T17:29:49.712Z,3.92
2023-03-16T17:37:58.808Z,5.68
2023-03-16T17:46:06.218Z,4.53
2023-03-16T17:54:14.420Z,3.58
2023-03-16T18:02:41.260Z,3.50
2023-03-16T18:10:51.124Z,3.50
2023-03-16T18:19:01.187Z,3.30
2023-03-16T18:27:10.320Z,3.75
2023-03-16T18:35:18.570Z,4.25
2023-03-16T18:43:28.265Z,4.63
2023-03-16T18:51:36.086Z,4.50
2023-03-16T18:59:49.556Z,4.82
2023-03-16T19:07:56.780Z,5.00
2023-03-16T19:16:08.474Z,4.97
2023-03-16T19:24:24.728Z,5.20
2023-03-16T19:32:32.765Z,5.40
2023-03-16T19:40:38.245Z,5.25
2023-03-16T19:48:46.772Z,5.55
2023-03-16T19:56:52.648Z,6.07
2023-03-16T20:05:00.775Z,6.03
2023-03-16T20:13:07.765Z,5.50
2023-03-16T20:21:18.595Z,6.72
2023-03-16T20:29:31.424Z,6.65
2023-03-16T20:37:40.599Z,6.90
2023-03-16T20:45:46.360Z,7.53
2023-03-16T20:53:54.872Z,6.80
2023-03-16T21:02:01.274Z,5.60
2023-03-16T21:10:10.145Z,6.90
2023-03-16T21:18:20.232Z,6.97
2023-03-16T21:26:31.101Z,7.35
2023-03-16T21:34:39.474Z,7.65
2023-03-16T21:42:48.426Z,7.32
2023-03-16T21:50:55.019Z,8.13
2023-03-16T21:59:03.231Z,7.40
2023-03-16T22:07:14.099Z,8.80
2023-03-16T22:15:25.185Z,9.40
2023-03-16T22:23:34.460Z,7.90
2023-03-16T22:31:42.934Z,8.18
2023-03-16T22:39:48.338Z,7.88
2023-03-16T22:47:59.008Z,8.43
2023-03-16T22:56:04.428Z,8.40
2023-03-16T23:04:16.770Z,7.43
2023-03-16T23:12:24.376Z,8.50
2023-03-16T23:20:34.373Z,8.85
2023-03-16T23:28:39.834Z,10.20
2023-03-16T23:36:48.070Z,10.05
2023-03-16T23:44:53.601Z,8.85
2023-03-16T23:53:01.689Z,9.35
